Time;durP1;ratioP1;P1;durP2;ratioP2;P2;SDS_P1;SDS_P2;PMS_P1;PMS_P2;Temp;Humidity;BMP_temperature;BMP_pressure;BME280_temperature;BME280_humidity;BME280_pressure;Samples;Min_cycle;Max_cycle;Signal;HPM_P1;HPM_P2
2022/10/11 00:02:12;;;;;;;10.83;6.10;;;;;;;14.70;100.00;155136.59;5070514;28;20796;-75
2022/10/11 00:04:39;;;;;;;7.10;5.40;;;;;;;14.67;100.00;155127.53;5070767;28;20438;-75
2022/10/11 00:07:07;;;;;;;8.77;5.77;;;;;;;14.60;100.00;155111.94;5081101;28;20551;-75
2022/10/11 00:09:34;;;;;;;7.13;5.50;;;;;;;14.60;100.00;155110.63;5078439;28;20461;-75
2022/10/11 00:12:01;;;;;;;7.13;5.00;;;;;;;14.55;100.00;155097.63;5058710;28;20454;-75
2022/10/11 00:14:28;;;;;;;7.90;5.30;;;;;;;14.50;100.00;155085.97;5072065;28;20442;-75
2022/10/11 00:16:55;;;;;;;6.80;5.20;;;;;;;14.46;100.00;155074.25;5070440;28;20779;-75
2022/10/11 00:19:22;;;;;;;6.93;4.63;;;;;;;14.40;100.00;155059.94;5068352;28;20446;-75
2022/10/11 00:21:49;;;;;;;9.13;5.23;;;;;;;14.38;100.00;155053.47;5071491;28;20442;-75
2022/10/11 00:24:17;;;;;;;7.40;5.23;;;;;;;14.35;100.00;155046.97;5104462;28;20442;-75
2022/10/11 00:26:44;;;;;;;9.03;5.07;;;;;;;14.32;100.00;155039.16;5070741;28;20478;-75
2022/10/11 00:29:11;;;;;;;8.00;5.33;;;;;;;14.26;100.00;155022.25;5067538;28;20472;-74
2022/10/11 00:31:38;;;;;;;7.10;4.50;;;;;;;14.22;100.00;155011.84;5098405;28;20448;-75
2022/10/11 00:34:05;;;;;;;10.93;5.30;;;;;;;14.19;100.00;155005.34;5071561;28;20442;-75
2022/10/11 00:36:32;;;;;;;6.73;5.33;;;;;;;14.18;100.00;155001.50;5073117;28;20960;-75
2022/10/11 00:38:59;;;;;;;7.57;4.67;;;;;;;14.15;100.00;154995.00;5073721;28;20442;-75
2022/10/11 00:41:27;;;;;;;6.80;4.67;;;;;;;14.12;100.00;154987.19;5107927;28;20437;-75
2022/10/11 00:44:09;;;;;;;6.40;4.70;;;;;;;14.08;100.00;154976.84;5057694;28;20518;-75
2022/10/11 00:46:35;;;;;;;9.93;4.63;;;;;;;14.09;100.00;154978.09;5074634;28;20456;-75
2022/10/11 00:49:05;;;;;;;8.47;5.27;;;;;;;14.04;100.00;154967.72;5065902;28;20467;-75
2022/10/11 00:51:43;;;;;;;5.53;4.30;;;;;;;13.98;100.00;154952.13;5033296;28;20446;-75
2022/10/11 00:54:12;;;;;;;11.00;5.27;;;;;;;13.95;100.00;154944.34;5064557;28;20452;-75
2022/10/11 00:56:41;;;;;;;8.93;5.13;;;;;;;13.93;100.00;154937.84;5035120;28;20428;-75
2022/10/11 00:59:11;;;;;;;10.73;5.73;;;;;;;13.92;100.00;154936.59;5066878;28;20466;-75
2022/10/11 01:01:37;;;;;;;9.57;6.20;;;;;;;13.90;100.00;154931.38;5035179;28;20436;-75
2022/10/11 01:04:05;;;;;;;6.30;5.27;;;;;;;13.89;100.00;154927.50;5029076;28;20450;-75
2022/10/11 01:06:32;;;;;;;7.53;5.47;;;;;;;13.88;100.00;154924.88;5033358;28;20458;-75
2022/10/11 01:08:59;;;;;;;5.70;4.93;;;;;;;13.84;100.00;154914.50;5033906;28;20463;-75
2022/10/11 01:11:27;;;;;;;6.70;5.40;;;;;;;13.80;100.00;154905.41;5063235;28;20475;-75
2022/10/11 01:14:08;;;;;;;5.93;4.40;;;;;;;13.76;100.00;154895.06;5033496;28;20950;-74
2022/10/11 01:16:38;;;;;;;11.73;5.60;;;;;;;13.72;100.00;154883.34;5017082;28;20923;-75
2022/10/11 01:19:14;;;;;;;5.67;4.93;;;;;;;13.70;100.00;154878.16;5034843;28;20416;-75
2022/10/11 01:21:47;;;;;;;7.67;5.50;;;;;;;13.68;100.00;154872.97;5051556;28;20943;-74
2022/10/11 01:24:31;;;;;;;8.07;5.13;;;;;;;13.66;100.00;154867.78;5029804;28;20439;-75
2022/10/11 01:27:34;;;;;;;8.50;5.67;;;;;;;13.62;100.00;154857.38;5033455;28;20475;-74
2022/10/11 01:30:23;;;;;;;8.97;5.20;;;;;;;13.59;100.00;154850.91;5033575;28;20463;-74
2022/10/11 01:32:56;;;;;;;6.43;5.60;;;;;;;13.58;100.00;154847.03;5066097;28;20447;-74
2022/10/11 01:35:28;;;;;;;8.77;5.40;;;;;;;13.55;100.00;154840.53;5034552;28;20515;-75
2022/10/11 01:37:59;;;;;;;7.87;5.73;;;;;;;13.55;100.00;154839.22;5031863;28;20501;-74
2022/10/11 01:40:29;;;;;;;9.20;5.77;;;;;;;13.49;100.00;154823.66;5032032;28;20456;-74
2022/10/11 01:42:57;;;;;;;6.50;4.93;;;;;;;13.47;100.00;154819.78;5063931;28;20849;-75
2022/10/11 01:45:25;;;;;;;6.20;5.57;;;;;;;13.45;100.00;154813.28;5016806;28;20550;-74
2022/10/11 01:48:02;;;;;;;9.53;6.20;;;;;;;13.42;100.00;154806.81;5052594;28;20474;-74
2022/10/11 01:50:43;;;;;;;6.87;4.97;;;;;;;13.42;100.00;154808.06;5106626;28;20461;-74
2022/10/11 01:53:27;;;;;;;11.23;6.73;;;;;;;13.45;100.00;154813.28;5104935;28;20528;-74
2022/10/11 01:55:55;;;;;;;9.93;6.43;;;;;;;13.46;100.00;154817.16;5038860;28;20446;-75
2022/10/11 01:58:32;;;;;;;9.27;6.40;;;;;;;13.50;100.00;154826.25;5096191;28;20488;-74
2022/10/11 02:01:06;;;;;;;11.80;6.60;;;;;;;13.51;100.00;154828.81;5072547;28;20441;-75
2022/10/11 02:03:40;;;;;;;9.67;6.70;;;;;;;13.51;100.00;154828.81;5059136;28;20447;-75
2022/10/11 02:06:11;;;;;;;9.47;6.80;;;;;;;13.47;100.00;154819.78;5069618;28;20453;-75
2022/10/11 02:08:45;;;;;;;13.20;7.10;;;;;;;13.47;100.00;154818.47;5072561;28;20448;-75
2022/10/11 02:11:16;;;;;;;10.97;6.57;;;;;;;13.39;100.00;154799.00;5069433;28;20438;-74
2022/10/11 02:13:47;;;;;;;11.03;6.90;;;;;;;13.43;100.00;154810.66;5071860;28;20536;-75
2022/10/11 02:16:18;;;;;;;12.80;6.40;;;;;;;13.41;100.00;154805.50;5071361;28;20549;-75
2022/10/11 02:18:47;;;;;;;8.87;7.00;;;;;;;13.40;100.00;154802.88;5073211;28;20921;-74
2022/10/11 02:21:18;;;;;;;11.80;7.50;;;;;;;13.39;100.00;154800.31;5070551;28;20439;-75
2022/10/11 02:23:49;;;;;;;14.00;7.07;;;;;;;13.40;100.00;154801.56;5063015;28;20779;-75
2022/10/11 02:26:16;;;;;;;10.20;7.17;;;;;;;13.38;100.00;154797.69;5053781;28;20768;-75
2022/10/11 02:28:44;;;;;;;9.73;7.20;;;;;;;13.38;100.00;154797.69;5056555;28;20451;-74
2022/10/11 02:31:11;;;;;;;10.43;7.50;;;;;;;13.38;100.00;154797.69;5068551;28;20431;-75
2022/10/11 02:33:44;;;;;;;11.70;7.93;;;;;;;13.37;100.00;154793.78;5061600;28;20634;-75
2022/10/11 02:36:13;;;;;;;19.60;7.87;;;;;;;13.33;100.00;154783.44;5105845;28;20433;-74
2022/10/11 02:38:44;;;;;;;10.13;6.50;;;;;;;13.31;100.00;154779.56;5067588;28;20477;-75
2022/10/11 02:41:16;;;;;;;9.13;7.10;;;;;;;13.30;100.00;154776.94;5070432;28;20531;-74
2022/10/11 02:43:46;;;;;;;11.57;8.73;;;;;;;13.31;100.00;154779.56;5072573;28;20454;-74
2022/10/11 02:46:13;;;;;;;11.23;7.77;;;;;;;13.32;100.00;154782.13;5079160;28;20499;-74
2022/10/11 02:48:41;;;;;;;14.77;8.13;;;;;;;13.33;100.00;154784.72;5071811;28;20492;-74
2022/10/11 02:51:11;;;;;;;14.60;8.20;;;;;;;13.39;100.00;154800.31;5070462;28;20489;-74
2022/10/11 02:53:38;;;;;;;11.67;8.63;;;;;;;13.37;100.00;154793.78;5072642;28;20457;-74
2022/10/11 02:56:05;;;;;;;16.53;9.00;;;;;;;13.39;100.00;154799.00;5071489;28;20453;-75
2022/10/11 02:58:32;;;;;;;14.00;9.70;;;;;;;13.39;100.00;154799.00;5090632;28;20457;-74
2022/10/11 03:00:58;;;;;;;15.37;9.87;;;;;;;13.41;100.00;154805.50;5059217;28;20538;-75
2022/10/11 03:03:25;;;;;;;14.23;10.73;;;;;;;13.39;100.00;154800.31;5091937;28;20485;-74
2022/10/11 03:05:58;;;;;;;14.47;11.50;;;;;;;13.44;100.00;154811.97;5055483;28;20480;-74
2022/10/11 03:08:24;;;;;;;15.73;10.50;;;;;;;13.43;100.00;154809.38;5071029;28;20452;-75
2022/10/11 03:10:51;;;;;;;16.63;10.77;;;;;;;13.46;100.00;154815.84;5053906;28;20466;-74
2022/10/11 03:13:18;;;;;;;14.83;11.30;;;;;;;13.48;100.00;154822.34;5070917;28;20464;-75
2022/10/11 03:15:48;;;;;;;17.73;10.90;;;;;;;13.49;100.00;154823.66;5071860;28;20448;-75
2022/10/11 03:18:14;;;;;;;15.57;10.93;;;;;;;13.47;100.00;154818.47;5070323;28;20450;-75
2022/10/11 03:20:41;;;;;;;15.37;11.70;;;;;;;13.48;100.00;154821.03;5064370;28;20567;-74
2022/10/11 03:23:09;;;;;;;17.87;11.50;;;;;;;13.46;100.00;154817.16;5067248;28;20438;-75
2022/10/11 03:25:36;;;;;;;14.50;11.77;;;;;;;13.49;100.00;154823.66;5052231;28;20422;-75
2022/10/11 03:28:03;;;;;;;17.27;11.60;;;;;;;13.48;100.00;154821.03;5095678;28;20453;-75
2022/10/11 03:30:30;;;;;;;15.53;11.60;;;;;;;13.49;100.00;154823.66;5069154;28;20473;-74
2022/10/11 03:32:56;;;;;;;14.90;11.67;;;;;;;13.48;100.00;154822.34;5071538;28;20450;-74
2022/10/11 03:35:23;;;;;;;18.23;12.73;;;;;;;13.46;100.00;154817.16;5105045;28;20917;-74
2022/10/11 03:37:50;;;;;;;18.90;12.17;;;;;;;13.46;100.00;154815.84;5102703;28;20553;-74
2022/10/11 03:40:18;;;;;;;18.73;12.80;;;;;;;13.46;100.00;154815.84;5069902;28;20460;-74
2022/10/11 03:42:45;;;;;;;20.13;13.53;;;;;;;13.45;100.00;154814.53;5072013;28;20446;-74
2022/10/11 03:45:12;;;;;;;20.70;13.23;;;;;;;13.47;100.00;154819.78;5078723;28;20452;-73
2022/10/11 03:47:39;;;;;;;19.27;13.20;;;;;;;13.49;100.00;154823.66;5071854;28;20556;-73
2022/10/11 03:50:07;;;;;;;20.10;12.10;;;;;;;13.51;100.00;154828.81;5067726;28;20466;-74
2022/10/11 03:52:34;;;;;;;17.53;13.83;;;;;;;13.48;100.00;154822.34;5070233;28;20458;-73
2022/10/11 03:55:01;;;;;;;17.83;13.10;;;;;;;13.48;100.00;154821.03;5062459;28;20457;-74
2022/10/11 03:57:29;;;;;;;20.67;14.37;;;;;;;13.47;100.00;154819.78;5070725;28;20446;-73
2022/10/11 03:59:56;;;;;;;19.13;13.30;;;;;;;13.49;100.00;154823.66;5083881;28;20447;-74
2022/10/11 04:02:23;;;;;;;23.20;14.93;;;;;;;13.47;100.00;154818.47;5068459;28;20571;-74
2022/10/11 04:04:50;;;;;;;20.10;13.40;;;;;;;13.45;100.00;154814.53;5069742;28;20488;-74
2022/10/11 04:07:16;;;;;;;18.30;14.43;;;;;;;13.45;100.00;154814.53;5070486;28;20441;-73
2022/10/11 04:09:43;;;;;;;21.70;13.97;;;;;;;13.45;100.00;154813.28;5070134;28;20511;-74
2022/10/11 04:12:09;;;;;;;20.30;14.30;;;;;;;13.43;100.00;154810.66;5072068;28;20457;-74
2022/10/11 04:14:37;;;;;;;24.70;16.67;;;;;;;13.45;100.00;154813.28;5073795;28;20450;-74
2022/10/11 04:17:04;;;;;;;20.77;16.53;;;;;;;13.46;100.00;154815.84;5074265;28;20453;-74
2022/10/11 04:19:31;;;;;;;19.60;14.03;;;;;;;13.48;100.00;154821.03;5066771;28;20516;-74
2022/10/11 04:21:57;;;;;;;23.33;14.50;;;;;;;13.50;100.00;154826.25;5077262;28;20455;-74
2022/10/11 04:24:24;;;;;;;19.97;13.40;;;;;;;13.53;100.00;154834.06;5072422;28;20443;-74
2022/10/11 04:26:50;;;;;;;22.27;15.57;;;;;;;13.53;100.00;154835.31;5056076;28;20422;-74
2022/10/11 04:29:17;;;;;;;24.20;14.77;;;;;;;13.52;100.00;154832.75;5072773;28;20438;-73
2022/10/11 04:31:45;;;;;;;21.17;14.43;;;;;;;13.52;100.00;154831.44;5072948;28;20470;-74
2022/10/11 04:34:12;;;;;;;20.17;15.07;;;;;;;13.51;100.00;154828.81;5074169;28;20473;-73
2022/10/11 04:36:38;;;;;;;22.00;15.23;;;;;;;13.52;100.00;154831.44;5073894;28;20429;-74
2022/10/11 04:39:05;;;;;;;20.80;15.17;;;;;;;13.52;100.00;154831.44;5069118;28;20457;-74
2022/10/11 04:41:32;;;;;;;20.13;16.07;;;;;;;13.52;100.00;154832.75;5072189;28;20495;-74
2022/10/11 04:43:59;;;;;;;24.70;16.73;;;;;;;13.52;100.00;154832.75;5073256;28;20447;-74
2022/10/11 04:46:26;;;;;;;28.03;16.80;;;;;;;13.50;100.00;154826.25;5070512;28;20518;-74
2022/10/11 04:48:54;;;;;;;20.93;16.23;;;;;;;13.50;100.00;154826.25;5062874;28;20473;-74
2022/10/11 04:51:21;;;;;;;20.50;15.43;;;;;;;13.49;100.00;154823.66;5075005;28;20464;-74
2022/10/11 04:53:47;;;;;;;20.87;15.60;;;;;;;13.46;100.00;154815.84;5069404;28;20481;-73
2022/10/11 04:56:16;;;;;;;22.47;15.10;;;;;;;13.46;100.00;154815.84;5067475;28;20546;-74
2022/10/11 04:58:43;;;;;;;24.90;16.80;;;;;;;13.47;100.00;154818.47;5106540;28;20779;-73
2022/10/11 05:01:10;;;;;;;19.40;15.13;;;;;;;13.45;100.00;154813.28;5061904;28;20464;-74
2022/10/11 05:03:37;;;;;;;24.90;16.63;;;;;;;13.41;100.00;154805.50;5055309;28;20437;-74
2022/10/11 05:06:05;;;;;;;21.00;15.07;;;;;;;13.41;100.00;154805.50;5090439;28;20446;-74
2022/10/11 05:08:32;;;;;;;22.63;15.37;;;;;;;13.43;100.00;154809.38;5071684;28;20499;-74
2022/10/11 05:11:01;;;;;;;22.37;16.03;;;;;;;13.40;100.00;154801.56;5069313;28;22570;-74
2022/10/11 05:13:28;;;;;;;25.77;15.27;;;;;;;13.41;100.00;154805.50;5072045;28;20457;-74
2022/10/11 05:15:55;;;;;;;23.03;16.63;;;;;;;13.48;100.00;154821.03;5069430;28;20880;-74
2022/10/11 05:18:21;;;;;;;22.30;14.70;;;;;;;13.46;100.00;154815.84;5069852;28;20812;-73
2022/10/11 05:20:48;;;;;;;23.07;15.40;;;;;;;13.46;100.00;154815.84;5070603;28;20442;-74
2022/10/11 05:23:16;;;;;;;20.93;15.63;;;;;;;13.42;100.00;154808.06;5068120;28;20478;-73
2022/10/11 05:25:43;;;;;;;24.10;16.83;;;;;;;13.43;100.00;154810.66;5069633;28;20458;-73
2022/10/11 05:28:10;;;;;;;22.57;15.33;;;;;;;13.47;100.00;154819.78;5066079;28;20454;-74
2022/10/11 05:30:37;;;;;;;18.63;13.97;;;;;;;13.42;100.00;154808.06;5070862;28;20516;-74
2022/10/11 05:33:03;;;;;;;22.00;16.00;;;;;;;13.38;100.00;154797.69;5071614;28;20453;-73
2022/10/11 05:35:30;;;;;;;22.90;16.60;;;;;;;13.37;100.00;154793.78;5068450;28;20453;-75
2022/10/11 05:37:56;;;;;;;22.37;16.77;;;;;;;13.39;100.00;154799.00;5085486;28;20453;-75
2022/10/11 05:40:24;;;;;;;23.70;15.73;;;;;;;13.42;100.00;154806.81;5070776;28;20438;-75
2022/10/11 05:42:51;;;;;;;21.73;16.87;;;;;;;13.40;100.00;154802.88;5068678;28;20457;-75
2022/10/11 05:45:18;;;;;;;23.53;17.10;;;;;;;13.38;100.00;154797.69;5068952;28;20444;-74
2022/10/11 05:47:45;;;;;;;18.93;14.90;;;;;;;13.39;100.00;154800.31;5059172;28;20494;-74
2022/10/11 05:50:11;;;;;;;22.37;15.77;;;;;;;13.35;100.00;154788.59;5069328;28;20486;-74
2022/10/11 05:52:38;;;;;;;24.37;16.03;;;;;;;13.37;100.00;154795.09;5064507;28;20454;-75
2022/10/11 05:55:06;;;;;;;24.30;17.33;;;;;;;13.31;100.00;154779.56;5066417;28;20472;-75
2022/10/11 05:57:34;;;;;;;26.73;18.30;;;;;;;13.35;100.00;154788.59;5072812;28;20450;-75
2022/10/11 06:00:01;;;;;;;19.30;15.40;;;;;;;13.34;100.00;154787.28;5068518;28;20449;-75
2022/10/11 06:02:39;;;;;;;25.63;16.73;;;;;;;13.32;100.00;154782.13;5056276;28;20454;-75
2022/10/11 06:05:06;;;;;;;25.20;17.97;;;;;;;13.27;100.00;154769.13;5074078;28;20442;-75
2022/10/11 06:07:32;;;;;;;25.60;17.20;;;;;;;13.28;100.00;154771.75;5064997;28;20508;-74
2022/10/11 06:09:59;;;;;;;24.60;16.10;;;;;;;13.29;100.00;154773.06;5063876;28;20890;-74
2022/10/11 06:12:26;;;;;;;21.37;16.57;;;;;;;13.31;100.00;154778.25;5066361;28;20461;-74
2022/10/11 06:14:53;;;;;;;21.50;16.10;;;;;;;13.31;100.00;154779.56;5065366;28;20664;-75
2022/10/11 06:17:21;;;;;;;25.80;18.00;;;;;;;13.29;100.00;154773.06;5067141;28;20561;-74
2022/10/11 06:19:48;;;;;;;23.67;16.70;;;;;;;13.26;100.00;154765.28;5058780;28;20856;-74
2022/10/11 06:22:14;;;;;;;23.57;16.87;;;;;;;13.29;100.00;154774.31;5066101;28;20456;-74
2022/10/11 06:24:41;;;;;;;23.60;16.50;;;;;;;13.31;100.00;154779.56;5067636;28;20501;-75
2022/10/11 06:27:08;;;;;;;26.60;16.70;;;;;;;13.31;100.00;154779.56;5067582;28;20454;-74
2022/10/11 06:29:34;;;;;;;28.27;16.87;;;;;;;13.31;100.00;154779.56;5068595;28;20452;-75
2022/10/11 06:32:02;;;;;;;26.30;16.80;;;;;;;13.31;100.00;154779.56;5065878;28;20481;-74
2022/10/11 06:34:29;;;;;;;24.27;17.97;;;;;;;13.28;100.00;154771.75;5066950;28;20445;-73
2022/10/11 06:36:56;;;;;;;31.87;18.73;;;;;;;13.30;100.00;154776.94;5064511;28;20589;-73
2022/10/11 06:39:28;;;;;;;25.90;17.37;;;;;;;13.30;100.00;154776.94;5057015;28;20472;-74
2022/10/11 06:41:57;;;;;;;29.23;17.97;;;;;;;13.28;100.00;154771.75;5069265;28;20484;-74
2022/10/11 06:44:25;;;;;;;21.87;18.10;;;;;;;13.33;100.00;154784.72;5068115;28;20568;-74
2022/10/11 06:46:52;;;;;;;29.07;16.83;;;;;;;13.25;100.00;154763.97;5064468;28;20466;-74
2022/10/11 06:49:20;;;;;;;23.80;17.43;;;;;;;13.23;100.00;154757.47;5068283;28;20788;-74
2022/10/11 06:51:47;;;;;;;27.23;16.50;;;;;;;13.24;100.00;154761.34;5059193;28;20468;-73
2022/10/11 06:54:13;;;;;;;22.63;17.00;;;;;;;13.20;100.00;154751.00;5082901;28;20833;-73
2022/10/11 06:56:40;;;;;;;23.23;17.47;;;;;;;13.19;100.00;154748.38;5067717;28;20455;-76
2022/10/11 06:59:07;;;;;;;24.73;17.07;;;;;;;13.18;100.00;154745.81;5068889;28;20446;-76
2022/10/11 07:01:34;;;;;;;23.93;17.57;;;;;;;13.16;100.00;154740.59;5081996;28;20528;-76
2022/10/11 07:04:01;;;;;;;22.27;17.37;;;;;;;13.15;100.00;154738.03;5067825;28;20473;-73
2022/10/11 07:06:30;;;;;;;23.67;17.30;;;;;;;13.13;100.00;154732.78;5076540;28;20456;-73
2022/10/11 07:08:57;;;;;;;27.40;17.93;;;;;;;13.17;100.00;154741.91;5067599;28;20476;-76
2022/10/11 07:11:26;;;;;;;27.97;17.53;;;;;;;13.15;100.00;154738.03;5059113;28;20469;-76
2022/10/11 07:13:54;;;;;;;29.97;17.43;;;;;;;13.17;100.00;154741.91;5068728;28;20824;-75
2022/10/11 07:16:21;;;;;;;24.40;17.50;;;;;;;13.19;100.00;154748.38;5067863;28;20520;-73
2022/10/11 07:18:48;;;;;;;18.10;16.10;;;;;;;13.18;100.00;154744.50;5067117;28;20533;-73
2022/10/11 07:21:15;;;;;;;23.40;17.60;;;;;;;13.21;100.00;154753.56;5099294;28;20449;-75
2022/10/11 07:23:43;;;;;;;23.90;17.20;;;;;;;13.22;100.00;154756.19;5067874;28;20449;-76
2022/10/11 07:26:11;;;;;;;20.97;16.37;;;;;;;13.28;100.00;154771.75;5067405;28;20936;-90
2022/10/11 07:28:38;;;;;;;24.17;17.03;;;;;;;13.32;100.00;154780.81;5069188;28;20446;-89
2022/10/11 07:31:05;;;;;;;26.63;17.00;;;;;;;13.31;100.00;154779.56;5065688;28;20906;-89
2022/10/11 07:33:32;;;;;;;23.43;16.13;;;;;;;13.31;100.00;154779.56;5068079;28;20454;-89
2022/10/11 07:35:59;;;;;;;21.20;16.13;;;;;;;13.37;100.00;154795.09;5067956;28;20534;-90
2022/10/11 07:38:25;;;;;;;23.60;16.70;;;;;;;13.36;100.00;154792.53;5069802;28;20447;-89
2022/10/11 07:40:53;;;;;;;20.47;16.37;;;;;;;13.37;100.00;154793.78;5067203;28;20481;-90
2022/10/11 07:43:20;;;;;;;24.87;16.40;;;;;;;13.41;100.00;154804.19;5066933;28;20548;-88
2022/10/11 07:45:47;;;;;;;21.83;17.20;;;;;;;13.42;100.00;154806.81;5101256;28;20800;-90
2022/10/11 07:48:14;;;;;;;25.17;17.30;;;;;;;13.48;100.00;154821.03;5069869;28;20485;-89
2022/10/11 07:50:41;;;;;;;22.07;15.80;;;;;;;13.49;100.00;154823.66;5069954;28;20443;-89
2022/10/11 07:53:08;;;;;;;25.57;16.90;;;;;;;13.52;100.00;154832.75;5066468;28;20454;-90
2022/10/11 07:55:38;;;;;;;25.67;18.07;;;;;;;13.59;100.00;154849.59;5067487;28;20952;-89
2022/10/11 07:58:07;;;;;;;22.50;16.93;;;;;;;13.57;100.00;154845.72;5065167;28;20519;-90
2022/10/11 08:00:34;;;;;;;26.20;18.67;;;;;;;13.65;100.00;154865.19;5067079;28;20449;-90
2022/10/11 08:03:02;;;;;;;24.70;17.00;;;;;;;13.60;100.00;154852.22;5065549;28;20525;-90
2022/10/11 08:05:29;;;;;;;24.83;18.33;;;;;;;13.66;100.00;154867.78;5066901;28;20733;-90
2022/10/11 08:07:56;;;;;;;23.17;19.30;;;;;;;13.76;100.00;154893.75;5068352;28;20542;-90
2022/10/11 08:10:23;;;;;;;25.30;19.57;;;;;;;13.70;100.00;154879.47;5066104;28;20451;-89
2022/10/11 08:12:50;;;;;;;27.63;17.70;;;;;;;13.74;100.00;154888.56;5066963;28;20887;-89
2022/10/11 08:15:18;;;;;;;30.00;19.50;;;;;;;13.76;100.00;154895.06;5060416;28;20977;-89
2022/10/11 08:17:45;;;;;;;26.40;19.33;;;;;;;13.77;100.00;154897.63;5071582;28;20461;-89
2022/10/11 08:20:11;;;;;;;24.00;17.87;;;;;;;13.74;100.00;154889.81;5071020;28;20449;-89
2022/10/11 08:22:38;;;;;;;30.53;20.13;;;;;;;13.84;100.00;154914.50;5064150;28;20442;-89
2022/10/11 08:25:05;;;;;;;31.87;20.47;;;;;;;13.81;100.00;154906.72;5066148;28;20448;-89
2022/10/11 08:27:32;;;;;;;25.80;19.60;;;;;;;13.82;100.00;154910.59;5062771;28;20454;-89
2022/10/11 08:29:59;;;;;;;32.83;17.97;;;;;;;13.80;100.00;154904.09;5066828;28;20503;-89
2022/10/11 08:32:27;;;;;;;24.23;18.53;;;;;;;13.87;100.00;154922.31;5064121;28;20473;-89
2022/10/11 08:34:53;;;;;;;23.17;17.47;;;;;;;13.78;100.00;154900.22;5077295;28;20800;-89
2022/10/11 08:37:20;;;;;;;26.90;17.33;;;;;;;13.79;100.00;154901.53;5065914;28;21032;-89
2022/10/11 08:39:47;;;;;;;22.30;17.40;;;;;;;13.81;100.00;154906.72;5063762;28;20455;-89
2022/10/11 08:42:17;;;;;;;24.77;18.07;;;;;;;13.80;100.00;154904.09;5069553;28;20438;-89
2022/10/11 08:44:47;;;;;;;23.87;16.50;;;;;;;13.94;100.00;154941.78;5081175;28;20442;-89
2022/10/11 08:47:18;;;;;;;22.50;16.53;;;;;;;13.89;100.00;154927.50;5067713;28;20482;-89
2022/10/11 08:49:46;;;;;;;26.30;18.13;;;;;;;13.82;100.00;154909.34;5068975;28;20441;-89
2022/10/11 08:52:20;;;;;;;28.73;18.40;;;;;;;13.82;100.00;154909.34;5067889;28;20473;-89
2022/10/11 08:54:49;;;;;;;21.90;18.63;;;;;;;13.72;100.00;154884.63;5076140;28;20446;-89
2022/10/11 08:57:19;;;;;;;26.00;18.83;;;;;;;13.73;100.00;154885.94;5073021;28;20834;-89
2022/10/11 08:59:49;;;;;;;26.40;18.90;;;;;;;13.78;100.00;154898.91;5066198;28;20449;-89
2022/10/11 09:02:30;;;;;;;22.40;16.97;;;;;;;13.89;100.00;154927.50;5074739;28;20438;-89
2022/10/11 09:04:58;;;;;;;26.83;19.13;;;;;;;13.89;100.00;154927.50;5070990;28;20441;-87
2022/10/11 09:07:35;;;;;;;24.53;19.07;;;;;;;13.84;100.00;154914.50;5071438;28;20541;-89
2022/10/11 09:10:28;;;;;;;26.53;17.67;;;;;;;13.84;100.00;154915.81;5068671;28;20453;-89
2022/10/11 09:13:01;;;;;;;25.20;17.97;;;;;;;13.81;100.00;154906.72;5061240;28;20807;-89
2022/10/11 09:15:32;;;;;;;25.63;18.47;;;;;;;13.79;100.00;154901.53;5069466;28;20479;-88
2022/10/11 09:18:14;;;;;;;25.13;18.67;;;;;;;13.83;100.00;154911.91;5057456;28;20528;-89
2022/10/11 09:20:49;;;;;;;23.57;18.60;;;;;;;13.86;100.00;154919.69;5070615;28;20529;-89
2022/10/11 09:23:27;;;;;;;25.60;18.20;;;;;;;13.85;100.00;154917.06;5054116;28;20548;-89
2022/10/11 09:25:55;;;;;;;24.47;18.63;;;;;;;13.77;100.00;154896.31;5070310;28;20449;-89
2022/10/11 09:28:29;;;;;;;25.77;19.70;;;;;;;13.69;100.00;154876.84;5071338;28;20481;-88
2022/10/11 09:30:56;;;;;;;24.40;18.47;;;;;;;13.73;100.00;154885.94;5086751;28;20971;-89
2022/10/11 09:33:30;;;;;;;28.53;20.20;;;;;;;13.75;100.00;154891.13;5067517;28;20458;-89
2022/10/11 09:35:58;;;;;;;27.10;18.90;;;;;;;13.76;100.00;154893.75;5084017;28;20485;-89
2022/10/11 09:38:34;;;;;;;31.73;19.30;;;;;;;13.74;100.00;154889.81;5071013;28;20445;-88
2022/10/11 09:41:08;;;;;;;29.63;17.70;;;;;;;13.84;100.00;154914.50;5068794;28;21030;-89
2022/10/11 09:43:34;;;;;;;28.30;18.47;;;;;;;13.78;100.00;154900.22;5063622;28;20873;-88
2022/10/11 09:46:01;;;;;;;32.30;21.97;;;;;;;13.76;100.00;154893.75;5071655;28;20438;-88
2022/10/11 09:48:31;;;;;;;24.60;19.30;;;;;;;13.79;100.00;154901.53;5070061;28;20477;-89
2022/10/11 09:51:04;;;;;;;30.03;19.93;;;;;;;13.81;100.00;154906.72;5063735;28;20447;-89
2022/10/11 09:53:50;;;;;;;30.37;19.27;;;;;;;13.87;100.00;154922.31;5070509;28;20545;-89
2022/10/11 09:56:17;;;;;;;27.90;20.00;;;;;;;13.89;100.00;154927.50;5069543;28;20480;-89
2022/10/11 09:58:44;;;;;;;27.03;18.57;;;;;;;13.94;100.00;154941.78;5071247;28;20545;-89
2022/10/11 10:01:12;;;;;;;26.27;21.83;;;;;;;13.87;100.00;154922.31;5065498;28;20553;-89
2022/10/11 10:03:41;;;;;;;25.87;18.80;;;;;;;13.84;100.00;154914.50;5069376;28;20869;-88
2022/10/11 10:06:16;;;;;;;31.90;18.50;;;;;;;13.82;100.00;154909.34;5070038;28;20441;-89
2022/10/11 10:08:46;;;;;;;28.30;20.43;;;;;;;13.82;100.00;154910.59;5084729;28;20561;-89
2022/10/11 10:11:13;;;;;;;27.47;18.80;;;;;;;13.97;100.00;154948.25;5067894;28;20442;-88
2022/10/11 10:13:45;;;;;;;29.07;19.90;;;;;;;13.99;100.00;154953.44;5068496;28;20827;-88
2022/10/11 10:16:21;;;;;;;22.00;17.00;;;;;;;13.94;100.00;154941.78;5059694;28;20478;-88
2022/10/11 10:18:50;;;;;;;27.23;17.43;;;;;;;13.95;100.00;154944.34;5061664;28;20462;-89
2022/10/11 10:21:26;;;;;;;26.53;20.13;;;;;;;13.92;100.00;154935.28;5048924;28;20817;-88
2022/10/11 10:23:54;;;;;;;25.50;16.90;;;;;;;13.88;100.00;154924.88;5082302;28;20454;-89
2022/10/11 10:26:22;;;;;;;26.83;17.63;;;;;;;13.96;100.00;154945.66;5071392;28;20449;-89
2022/10/11 10:28:58;;;;;;;24.90;19.07;;;;;;;13.91;100.00;154933.97;5100671;28;20453;-89
2022/10/11 10:31:28;;;;;;;30.87;18.80;;;;;;;13.93;100.00;154937.84;5068344;28;20445;-88
2022/10/11 10:33:55;;;;;;;28.80;19.83;;;;;;;13.88;100.00;154924.88;5070388;28;20537;-89
2022/10/11 10:36:27;;;;;;;28.53;19.57;;;;;;;13.88;100.00;154924.88;5070377;28;21306;-88
2022/10/11 10:38:59;;;;;;;28.90;19.00;;;;;;;13.91;100.00;154933.97;5067643;28;20453;-89
2022/10/11 10:41:26;;;;;;;27.13;17.93;;;;;;;13.90;100.00;154931.38;5070336;28;20963;-88
2022/10/11 10:43:55;;;;;;;22.43;17.60;;;;;;;13.85;100.00;154917.06;5068677;28;20445;-88
2022/10/11 10:46:43;;;;;;;27.70;19.30;;;;;;;13.96;100.00;154945.66;5076224;28;20457;-88
2022/10/11 10:49:12;;;;;;;32.00;20.20;;;;;;;13.94;100.00;154941.78;5056923;28;20448;-89
2022/10/11 10:51:46;;;;;;;25.33;17.20;;;;;;;13.94;100.00;154940.47;5069225;28;20457;-89
2022/10/11 10:54:20;;;;;;;31.13;18.20;;;;;;;13.96;100.00;154945.66;5060906;28;20445;-89
2022/10/11 10:56:52;;;;;;;25.57;18.43;;;;;;;14.07;100.00;154974.22;5068584;28;20450;-88
2022/10/11 10:59:42;;;;;;;23.80;16.87;;;;;;;14.06;100.00;154970.34;5069504;28;20786;-89
2022/10/11 11:02:14;;;;;;;24.70;18.93;;;;;;;14.06;100.00;154970.34;5064636;28;20457;-88
2022/10/11 11:04:44;;;;;;;27.23;18.70;;;;;;;14.07;100.00;154974.22;5064699;28;20775;-88
2022/10/11 11:07:19;;;;;;;22.00;16.20;;;;;;;14.12;100.00;154987.19;5069449;28;20446;-88
2022/10/11 11:09:51;;;;;;;24.47;17.93;;;;;;;14.19;100.00;155005.34;5050609;28;20449;-88
2022/10/11 11:12:27;;;;;;;25.20;18.27;;;;;;;14.23;100.00;155015.78;5065780;28;20508;-88
2022/10/11 11:15:01;;;;;;;27.03;16.73;;;;;;;14.20;100.00;155006.66;5066219;28;20786;-88